Time;durP1;ratioP1;P1;durP2;ratioP2;P2;SDS_P1;SDS_P2;PMS_P1;PMS_P2;Temp;Humidity;BMP_temperature;BMP_pressure;BME280_temperature;BME280_humidity;BME280_pressure;Samples;Min_cycle;Max_cycle;Signal;HPM_P1;HPM_P2
2022/07/31 00:00:47;;;;;;;13.08;4.10;;;;;;;19.24;78.63;100132.39;1747754;82;21501;-67
2022/07/31 00:03:15;;;;;;;7.15;3.52;;;;;;;19.24;77.49;100124.38;1749275;80;21116;-67
2022/07/31 00:05:44;;;;;;;10.00;4.00;;;;;;;19.28;77.54;100127.20;1778725;80;21219;-69
2022/07/31 00:08:11;;;;;;;8.03;3.40;;;;;;;19.29;76.93;100124.40;1780383;80;21075;-68
2022/07/31 00:10:38;;;;;;;6.03;3.60;;;;;;;19.30;76.79;100125.23;1784388;80;21028;-68
2022/07/31 00:13:04;;;;;;;11.75;3.90;;;;;;;19.32;76.07;100128.66;1784412;80;21024;-69
2022/07/31 00:15:31;;;;;;;7.25;3.77;;;;;;;19.35;75.32;100119.10;1784628;80;21533;-68
2022/07/31 00:17:58;;;;;;;9.50;3.50;;;;;;;19.40;74.97;100120.09;1784510;80;21219;-68
2022/07/31 00:20:24;;;;;;;7.80;3.60;;;;;;;19.43;74.36;100115.37;1784379;80;21068;-67
2022/07/31 00:22:51;;;;;;;5.72;3.58;;;;;;;19.47;73.98;100108.84;1784633;80;20993;-68
2022/07/31 00:25:17;;;;;;;6.53;3.52;;;;;;;19.49;73.93;100108.24;1784940;80;21001;-68
2022/07/31 00:27:44;;;;;;;8.38;3.33;;;;;;;19.48;73.89;100106.52;1784547;80;21591;-67
2022/07/31 00:30:15;;;;;;;4.92;3.30;;;;;;;19.47;73.28;100106.16;1784457;80;21510;-67
2022/07/31 00:32:44;;;;;;;8.18;3.00;;;;;;;19.47;73.00;100108.84;1784601;80;20977;-68
2022/07/31 00:35:12;;;;;;;8.48;3.30;;;;;;;19.47;72.88;100111.51;1784657;80;21016;-68
2022/07/31 00:37:40;;;;;;;6.20;2.98;;;;;;;19.48;72.81;100104.34;1784724;80;20997;-67
2022/07/31 00:40:09;;;;;;;6.53;3.30;;;;;;;19.46;73.02;100105.81;1784673;80;21111;-68
2022/07/31 00:42:37;;;;;;;8.60;3.50;;;;;;;19.46;72.74;100104.48;1784587;80;21330;-68
2022/07/31 00:45:06;;;;;;;9.33;3.30;;;;;;;19.46;72.72;100100.47;1784608;80;20990;-67
2022/07/31 00:47:33;;;;;;;6.73;3.30;;;;;;;19.44;73.23;100098.39;1785027;80;21036;-68
2022/07/31 00:50:00;;;;;;;7.83;3.50;;;;;;;19.41;73.11;100095.09;1784780;80;21541;-67
2022/07/31 00:52:27;;;;;;;6.97;3.12;;;;;;;19.38;72.86;100090.83;1784902;80;21091;-67
2022/07/31 00:54:54;;;;;;;10.13;2.98;;;;;;;19.33;72.77;100090.33;1784684;80;21134;-68
2022/07/31 00:57:21;;;;;;;4.95;2.85;;;;;;;19.30;72.53;100101.21;1784709;80;21042;-67
2022/07/31 00:59:50;;;;;;;6.53;2.85;;;;;;;19.28;71.71;100097.83;1784647;80;21008;-68
2022/07/31 01:02:16;;;;;;;4.85;2.60;;;;;;;19.29;71.94;100100.36;1784452;80;21038;-67
2022/07/31 01:04:43;;;;;;;4.87;3.00;;;;;;;19.31;71.54;100100.27;1784607;80;20981;-68
2022/07/31 01:07:10;;;;;;;8.60;3.30;;;;;;;19.30;71.50;100099.88;1784478;80;21594;-67
2022/07/31 01:09:38;;;;;;;4.80;2.75;;;;;;;19.30;71.62;100093.20;1780215;80;21064;-68
2022/07/31 01:12:32;;;;;;;8.45;2.95;;;;;;;19.26;71.54;100089.92;1778634;79;21025;-68
2022/07/31 01:15:03;;;;;;;7.30;3.05;;;;;;;19.22;71.43;100091.11;1777662;80;21083;-66
2022/07/31 01:17:29;;;;;;;5.97;3.00;;;;;;;19.19;71.62;100098.52;1778996;80;21112;-67
2022/07/31 01:19:56;;;;;;;7.72;3.10;;;;;;;19.16;71.73;100094.70;1778588;80;21282;-67
2022/07/31 01:23:00;;;;;;;4.72;2.77;;;;;;;19.13;71.77;100093.61;1778669;80;21012;-67
2022/07/31 01:26:03;;;;;;;7.97;3.00;;;;;;;19.12;71.85;100095.89;1774692;80;21554;-68
2022/07/31 01:28:57;;;;;;;5.37;3.10;;;;;;;19.08;72.17;100084.61;1777646;80;21065;-68
2022/07/31 01:31:47;;;;;;;7.40;2.52;;;;;;;19.03;72.11;100086.27;1751077;80;21044;-67
2022/07/31 01:34:29;;;;;;;4.33;2.57;;;;;;;18.99;72.56;100081.27;1778752;80;21056;-68
2022/07/31 01:37:15;;;;;;;6.35;3.00;;;;;;;18.93;72.85;100087.89;1778553;80;21269;-68
2022/07/31 01:39:45;;;;;;;8.55;3.17;;;;;;;18.90;72.95;100084.13;1778339;80;21096;-67
2022/07/31 01:42:14;;;;;;;5.75;2.80;;;;;;;18.88;72.57;100078.04;1778500;80;21029;-67
2022/07/31 01:44:45;;;;;;;4.67;3.05;;;;;;;18.84;72.58;100076.09;1779024;80;21545;-68
2022/07/31 01:47:16;;;;;;;5.70;3.12;;;;;;;18.84;72.79;100081.89;1778706;80;21093;-67
2022/07/31 01:49:42;;;;;;;;;;;;;;;18.83;72.88;100081.05;1781349;80;21033;-66
2022/07/31 01:52:09;;;;;;;6.83;2.90;;;;;;;18.82;72.56;100079.84;1748693;80;20438;-68
2022/07/31 01:54:37;;;;;;;4.85;3.12;;;;;;;18.78;72.87;100077.02;1778761;80;21084;-68
2022/07/31 01:57:04;;;;;;;6.50;3.30;;;;;;;18.74;72.92;100082.16;1748390;80;20985;-69
2022/07/31 01:59:34;;;;;;;5.47;3.60;;;;;;;18.70;73.04;100070.00;1778144;80;21839;-69
2022/07/31 02:02:21;;;;;;;4.97;3.33;;;;;;;18.69;73.14;100062.97;1777443;80;21537;-66
2022/07/31 02:04:48;;;;;;;6.47;2.90;;;;;;;18.64;73.60;100060.64;1778913;80;21560;-70
2022/07/31 02:07:15;;;;;;;7.85;3.60;;;;;;;18.60;73.35;100059.98;1779106;80;21517;-68
2022/07/31 02:09:42;;;;;;;9.73;3.35;;;;;;;18.59;73.77;100055.62;1778656;80;21713;-68
2022/07/31 02:12:10;;;;;;;8.95;3.65;;;;;;;18.58;73.69;100071.25;1778919;80;22156;-68
2022/07/31 02:14:42;;;;;;;4.90;3.25;;;;;;;18.54;73.63;100060.45;1778747;80;20982;-68
2022/07/31 02:17:10;;;;;;;5.95;3.10;;;;;;;18.51;73.64;100068.64;1778915;80;20982;-68
2022/07/31 02:19:57;;;;;;;6.10;3.10;;;;;;;18.49;73.84;100065.72;1729740;80;21876;-68
2022/07/31 02:22:25;;;;;;;5.53;2.85;;;;;;;18.47;73.93;100064.48;1778995;80;21001;-68
2022/07/31 02:24:52;;;;;;;5.03;2.45;;;;;;;18.43;74.15;100071.02;1779060;80;21315;-67
2022/07/31 02:27:18;;;;;;;7.62;3.02;;;;;;;18.39;74.67;100064.20;1778752;80;21561;-69
2022/07/31 02:29:45;;;;;;;5.40;2.90;;;;;;;18.39;74.66;100073.52;1778598;80;21503;-69
2022/07/31 02:32:13;;;;;;;6.17;2.90;;;;;;;18.38;74.96;100070.47;1778653;80;21064;-68
2022/07/31 02:34:40;;;;;;;4.35;2.60;;;;;;;18.38;75.28;100079.80;1778850;80;21155;-68
2022/07/31 02:37:06;;;;;;;7.25;2.98;;;;;;;18.36;75.09;100083.08;1778869;80;21219;-68
2022/07/31 02:39:33;;;;;;;9.80;2.60;;;;;;;18.36;74.96;100081.27;1778637;80;21057;-67
2022/07/31 02:42:00;;;;;;;7.78;2.55;;;;;;;18.35;74.88;100082.69;1778674;80;21250;-67
2022/07/31 02:44:30;;;;;;;6.30;2.47;;;;;;;18.36;75.50;100092.41;1778853;80;21082;-69
2022/07/31 02:46:58;;;;;;;5.83;3.00;;;;;;;18.32;75.23;100089.09;1778706;80;21624;-68
2022/07/31 02:49:25;;;;;;;9.70;2.60;;;;;;;18.30;75.55;100087.02;1778783;80;21267;-68
2022/07/31 02:51:54;;;;;;;4.45;3.05;;;;;;;18.28;75.73;100088.09;1778467;80;21048;-68
2022/07/31 02:54:23;;;;;;;8.08;3.00;;;;;;;18.23;76.08;100084.41;1779084;80;21458;-68
2022/07/31 02:56:52;;;;;;;8.23;2.92;;;;;;;18.19;76.60;100086.91;1778766;80;21013;-68
2022/07/31 02:59:20;;;;;;;5.42;2.55;;;;;;;18.14;76.83;100089.89;1779016;80;21016;-67
2022/07/31 03:01:51;;;;;;;9.05;2.67;;;;;;;18.09;77.10;100096.02;1777173;80;21156;-68
2022/07/31 03:04:19;;;;;;;6.97;2.62;;;;;;;18.06;77.18;100090.91;1778680;80;21066;-68
2022/07/31 03:06:47;;;;;;;6.90;2.95;;;;;;;18.04;77.16;100090.16;1778655;80;21469;-68
2022/07/31 03:09:15;;;;;;;6.05;2.95;;;;;;;18.04;77.30;100094.16;1780142;80;21054;-67
2022/07/31 03:11:42;;;;;;;8.45;2.83;;;;;;;18.04;77.67;100095.49;1784700;80;21103;-67
2022/07/31 03:14:09;;;;;;;6.35;3.00;;;;;;;18.05;77.29;100099.00;1784773;80;21117;-68
2022/07/31 03:16:36;;;;;;;8.45;3.00;;;;;;;18.05;77.19;100102.52;1784379;80;20969;-68
2022/07/31 03:19:03;;;;;;;7.08;3.12;;;;;;;18.07;77.46;100104.59;1784661;80;21029;-68
2022/07/31 03:21:30;;;;;;;3.98;2.70;;;;;;;18.10;77.67;100104.38;1784558;80;21021;-68
2022/07/31 03:23:58;;;;;;;7.30;2.50;;;;;;;18.13;77.78;100106.85;1756466;80;21013;-68
2022/07/31 03:26:24;;;;;;;5.03;2.60;;;;;;;18.17;76.62;100098.99;1784542;80;21195;-69
2022/07/31 03:28:52;;;;;;;4.67;2.40;;;;;;;18.22;76.36;100102.22;1784673;80;21001;-67
2022/07/31 03:31:19;;;;;;;4.45;2.58;;;;;;;18.32;76.31;100100.24;1784697;80;21524;-68
2022/07/31 03:33:46;;;;;;;5.72;2.50;;;;;;;18.40;75.40;100095.21;1784782;80;21016;-67
2022/07/31 03:36:15;;;;;;;4.95;2.42;;;;;;;18.54;74.83;100089.78;1756005;80;21099;-68
2022/07/31 03:38:42;;;;;;;7.72;2.45;;;;;;;18.83;73.74;100091.71;1784762;80;21223;-68
2022/07/31 03:41:09;;;;;;;6.08;2.40;;;;;;;19.25;71.23;100090.03;1784382;80;21033;-68
2022/07/31 03:43:36;;;;;;;8.38;2.45;;;;;;;19.65;69.36;100095.08;1784916;80;20977;-69
2022/07/31 03:46:02;;;;;;;6.85;2.75;;;;;;;19.97;67.39;100097.13;1784560;80;21041;-68
2022/07/31 03:48:29;;;;;;;6.75;2.12;;;;;;;20.24;66.20;100092.32;1784607;80;21095;-67
2022/07/31 03:50:56;;;;;;;3.67;2.30;;;;;;;20.49;64.94;100083.72;1784425;80;21103;-67
2022/07/31 03:53:23;;;;;;;4.62;2.60;;;;;;;20.70;63.29;100084.70;1784395;80;21069;-67
2022/07/31 03:55:51;;;;;;;4.47;2.30;;;;;;;20.96;62.56;100088.47;1753462;81;21005;-68
2022/07/31 03:58:19;;;;;;;7.87;2.22;;;;;;;21.22;61.55;100088.16;1753418;81;21029;-68
2022/07/31 04:00:45;;;;;;;5.62;2.17;;;;;;;21.40;60.69;100081.32;1753802;81;21036;-68
2022/07/31 04:03:12;;;;;;;4.40;2.10;;;;;;;21.63;59.47;100085.25;1753248;81;21242;-68
2022/07/31 04:05:43;;;;;;;6.75;2.17;;;;;;;21.74;58.55;100077.13;1751038;81;21016;-70
2022/07/31 04:08:11;;;;;;;2.98;2.12;;;;;;;21.85;58.86;100072.20;1753465;81;21091;-68
2022/07/31 04:10:38;;;;;;;5.70;2.70;;;;;;;22.07;58.40;100076.09;1753333;81;21100;-68
2022/07/31 04:13:07;;;;;;;6.30;2.52;;;;;;;22.20;56.61;100069.16;1753507;81;21048;-68
2022/07/31 04:15:34;;;;;;;4.60;2.42;;;;;;;22.32;56.28;100074.86;1753489;81;21204;-68
2022/07/31 04:18:00;;;;;;;6.75;2.47;;;;;;;22.50;55.82;100070.19;1753523;81;21544;-68
2022/07/31 04:20:29;;;;;;;4.22;2.27;;;;;;;22.66;54.77;100069.22;1752296;81;21043;-66
2022/07/31 04:22:56;;;;;;;5.78;2.05;;;;;;;22.76;55.15;100070.59;1753344;81;22061;-67
2022/07/31 04:25:41;;;;;;;5.53;2.10;;;;;;;22.97;54.05;100063.78;1753488;81;21024;-68
2022/07/31 04:28:09;;;;;;;4.90;1.80;;;;;;;23.27;52.74;100064.71;1752241;81;21140;-68
2022/07/31 04:30:37;;;;;;;3.65;2.02;;;;;;;23.51;51.61;100070.50;1753390;81;21033;-68
2022/07/31 04:33:05;;;;;;;3.47;2.22;;;;;;;23.52;51.16;100066.00;1753320;81;21552;-68
2022/07/31 04:35:32;;;;;;;3.35;1.98;;;;;;;23.60;51.09;100072.37;1753486;81;21053;-69
2022/07/31 04:37:59;;;;;;;4.83;1.90;;;;;;;23.76;51.06;100067.76;1753342;81;21615;-68
2022/07/31 04:40:26;;;;;;;7.83;2.00;;;;;;;23.90;50.39;100063.77;1753204;81;21385;-69
2022/07/31 04:42:54;;;;;;;3.87;2.05;;;;;;;24.08;49.89;100064.73;1753459;81;20978;-68
2022/07/31 04:45:20;;;;;;;4.67;2.00;;;;;;;24.15;49.99;100065.00;1753263;81;21028;-68
2022/07/31 04:47:47;;;;;;;3.65;1.90;;;;;;;24.12;49.51;100067.15;1753532;81;21041;-68
2022/07/31 04:50:14;;;;;;;5.28;1.72;;;;;;;24.17;50.05;100072.94;1753243;81;21059;-68
2022/07/31 04:52:42;;;;;;;5.42;2.00;;;;;;;24.33;49.61;100065.09;1751153;81;21115;-67
2022/07/31 04:55:11;;;;;;;5.45;1.70;;;;;;;24.56;49.44;100064.75;1753644;81;21072;-68
2022/07/31 04:57:38;;;;;;;4.25;1.77;;;;;;;24.90;48.39;100056.42;1753557;81;21083;-67
2022/07/31 05:00:09;;;;;;;9.48;1.90;;;;;;;25.04;47.43;100069.03;1753331;81;21088;-67
2022/07/31 05:02:36;;;;;;;;;;;;;;;25.09;47.18;100058.64;1756617;81;21084;-68
2022/07/31 05:05:04;;;;;;;6.08;1.42;;;;;;;25.25;46.47;100050.75;1753388;81;21828;-70
2022/07/31 05:07:33;;;;;;;3.75;1.40;;;;;;;25.41;46.10;100061.35;1751901;81;21020;-68
2022/07/31 05:10:02;;;;;;;6.90;1.60;;;;;;;25.47;46.32;100064.28;1753117;81;21531;-67
2022/07/31 05:12:31;;;;;;;2.63;1.43;;;;;;;25.60;46.00;100062.52;1753778;81;20991;-68
2022/07/31 05:14:59;;;;;;;7.70;1.75;;;;;;;25.74;45.19;100061.11;1753617;81;21036;-68
2022/07/31 05:17:25;;;;;;;4.67;1.72;;;;;;;25.90;46.04;100060.43;1753525;81;21614;-68
2022/07/31 05:19:53;;;;;;;2.83;1.40;;;;;;;26.25;44.62;100052.75;1751299;81;21065;-68
2022/07/31 05:22:22;;;;;;;5.25;1.52;;;;;;;26.52;44.49;100061.13;1753184;81;21092;-68
2022/07/31 05:24:53;;;;;;;3.27;1.72;;;;;;;26.79;43.43;100060.09;1757110;80;21110;-69
2022/07/31 05:27:20;;;;;;;4.78;1.62;;;;;;;26.90;43.15;100050.02;1784413;80;20997;-69
2022/07/31 05:29:46;;;;;;;5.03;1.62;;;;;;;26.99;42.39;100043.63;1784299;80;21271;-70
2022/07/31 05:32:16;;;;;;;17.07;1.65;;;;;;;26.96;42.51;100044.80;1784325;80;21028;-69
2022/07/31 05:34:44;;;;;;;3.12;1.60;;;;;;;27.01;41.98;100041.61;1784826;80;21077;-69
2022/07/31 05:37:11;;;;;;;3.15;1.40;;;;;;;27.22;42.12;100046.57;1784288;80;21009;-70
2022/07/31 05:39:39;;;;;;;2.85;1.50;;;;;;;27.37;41.17;100035.93;1784887;80;21565;-70
2022/07/31 05:42:26;;;;;;;3.77;1.32;;;;;;;27.46;40.93;100048.95;1707615;84;21070;-69
2022/07/31 05:44:59;;;;;;;5.80;1.40;;;;;;;27.40;41.06;100039.16;1707969;84;21094;-69
2022/07/31 05:47:27;;;;;;;3.47;1.60;;;;;;;27.41;40.81;100044.05;1737721;80;21115;-68
2022/07/31 05:49:54;;;;;;;5.17;1.40;;;;;;;27.46;40.62;100047.61;1784382;80;21389;-68
2022/07/31 05:52:21;;;;;;;9.05;2.25;;;;;;;27.63;40.42;100039.84;1784411;80;21056;-70
2022/07/31 05:54:49;;;;;;;1.50;1.30;;;;;;;27.85;39.63;100049.66;1782997;80;21064;-69
2022/07/31 05:57:27;;;;;;;3.45;1.57;;;;;;;27.96;39.53;100053.37;1784383;80;21068;-70
2022/07/31 05:59:54;;;;;;;5.83;1.40;;;;;;;28.02;39.54;100045.89;1784907;80;21056;-71
2022/07/31 06:02:21;;;;;;;5.33;1.60;;;;;;;28.10;39.09;100047.25;1784417;80;21099;-69
2022/07/31 06:04:58;;;;;;;5.35;1.67;;;;;;;28.33;38.92;100047.88;1783066;80;21001;-69
2022/07/31 06:07:26;;;;;;;4.03;1.72;;;;;;;28.51;38.47;100047.16;1784652;80;21137;-67
2022/07/31 06:09:54;;;;;;;3.92;1.50;;;;;;;28.54;37.75;100049.51;1783814;80;21592;-68
2022/07/31 06:12:21;;;;;;;2.98;1.25;;;;;;;28.57;38.06;100047.80;1748538;80;21084;-69
2022/07/31 06:14:48;;;;;;;4.62;1.30;;;;;;;28.73;37.72;100044.69;1778644;80;21009;-69
2022/07/31 06:17:33;;;;;;;3.55;1.20;;;;;;;28.87;37.63;100037.16;1778783;80;21088;-69
2022/07/31 06:20:00;;;;;;;7.42;1.40;;;;;;;28.95;36.35;100046.61;1779129;80;21098;-70
2022/07/31 06:22:26;;;;;;;4.17;1.52;;;;;;;28.99;36.94;100053.37;1778731;80;21068;-69
2022/07/31 06:24:53;;;;;;;4.30;1.57;;;;;;;28.84;36.85;100045.65;1779260;80;21037;-69
2022/07/31 06:27:21;;;;;;;11.25;1.60;;;;;;;28.73;36.99;100047.40;1778636;80;21045;-70
2022/07/31 06:29:47;;;;;;;5.67;1.60;;;;;;;28.55;37.52;100051.22;1779030;80;20997;-68
2022/07/31 06:32:15;;;;;;;3.25;1.40;;;;;;;28.52;37.88;100044.77;1778844;80;21072;-69
2022/07/31 06:34:43;;;;;;;4.60;1.52;;;;;;;28.75;37.38;100048.06;1778578;80;21041;-69
2022/07/31 06:37:11;;;;;;;9.50;1.40;;;;;;;28.86;37.36;100054.45;1778589;80;21037;-68
2022/07/31 06:39:37;;;;;;;5.83;1.85;;;;;;;28.83;36.69;100053.46;1778616;80;21017;-68
2022/07/31 06:42:09;;;;;;;7.30;1.70;;;;;;;28.56;37.86;100056.12;1747706;80;21005;-68
2022/07/31 06:44:38;;;;;;;7.00;1.72;;;;;;;28.55;37.33;100048.51;1778566;80;21866;-69
2022/07/31 06:47:17;;;;;;;2.95;1.30;;;;;;;28.73;37.27;100040.63;1778549;80;21037;-68
2022/07/31 06:49:52;;;;;;;6.92;1.75;;;;;;;28.82;36.70;100050.40;1777885;80;21074;-70
2022/07/31 06:52:18;;;;;;;5.53;1.37;;;;;;;28.54;37.30;100027.00;1778992;80;21739;-69
2022/07/31 06:54:47;;;;;;;3.40;1.60;;;;;;;28.40;37.43;100034.80;1762084;80;21001;-69
2022/07/31 06:57:13;;;;;;;5.85;1.55;;;;;;;28.19;37.45;100027.26;1748031;82;21842;-68
2022/07/31 06:59:40;;;;;;;3.58;1.30;;;;;;;28.11;38.03;100014.25;1747833;82;21084;-70
2022/07/31 07:02:07;;;;;;;3.60;1.30;;;;;;;28.34;37.87;100014.34;1747699;82;21548;-69
2022/07/31 07:04:34;;;;;;;6.55;1.60;;;;;;;28.55;37.56;100013.30;1748126;82;21540;-70
2022/07/31 07:07:01;;;;;;;8.18;1.50;;;;;;;28.60;36.73;100025.79;1747918;82;21040;-70
2022/07/31 07:09:28;;;;;;;4.05;1.30;;;;;;;28.39;37.03;100009.23;1747883;82;21634;-69
2022/07/31 07:11:56;;;;;;;3.70;1.70;;;;;;;28.53;37.50;100008.55;1747623;81;21060;-69
2022/07/31 07:14:24;;;;;;;3.37;1.65;;;;;;;29.07;35.94;99997.76;1747827;82;21068;-69
2022/07/31 07:16:50;;;;;;;4.90;1.55;;;;;;;29.33;35.40;100003.84;1748233;82;21005;-69
2022/07/31 07:19:18;;;;;;;2.90;1.20;;;;;;;29.57;34.64;99999.58;1747792;82;21088;-69
2022/07/31 07:21:45;;;;;;;5.22;1.40;;;;;;;29.77;34.43;100002.66;1747850;82;21140;-69
2022/07/31 07:24:11;;;;;;;3.25;1.40;;;;;;;30.00;34.19;99999.00;1747957;82;21021;-69
2022/07/31 07:26:58;;;;;;;4.58;1.45;;;;;;;30.19;33.86;99997.11;1747123;82;21084;-70
2022/07/31 07:29:24;;;;;;;3.55;1.35;;;;;;;30.44;34.09;99991.41;1748100;82;21056;-70
2022/07/31 07:31:51;;;;;;;3.37;1.20;;;;;;;30.62;32.58;100001.36;1747827;82;21001;-69
2022/07/31 07:34:18;;;;;;;2.83;1.50;;;;;;;30.28;32.50;100001.44;1747749;82;21129;-70
2022/07/31 07:36:46;;;;;;;9.15;1.55;;;;;;;30.03;32.80;99995.41;1747829;82;21517;-70
2022/07/31 07:39:15;;;;;;;6.20;1.50;;;;;;;29.86;32.18;100001.55;1746530;82;21065;-69
2022/07/31 07:41:42;;;;;;;9.80;1.57;;;;;;;29.78;32.64;99989.39;1747736;82;20998;-70
2022/07/31 07:44:08;;;;;;;5.85;1.80;;;;;;;29.99;33.21;99995.97;1747991;82;21136;-69
2022/07/31 07:46:35;;;;;;;4.15;1.22;;;;;;;30.27;32.88;99999.73;1748261;82;21747;-69
2022/07/31 07:49:03;;;;;;;4.28;1.22;;;;;;;30.40;31.35;100009.12;1747770;82;21048;-69
2022/07/31 07:51:34;;;;;;;4.50;1.37;;;;;;;30.42;31.23;99997.55;1747594;82;21078;-70
2022/07/31 07:54:03;;;;;;;4.33;1.30;;;;;;;30.42;31.23;99997.55;1744967;82;21084;-69
2022/07/31 07:56:50;;;;;;;4.55;1.30;;;;;;;30.45;30.36;99993.09;1747823;82;21041;-70
2022/07/31 07:59:18;;;;;;;4.40;1.10;;;;;;;30.25;31.27;99999.08;1743461;82;21248;-70
2022/07/31 08:01:56;;;;;;;5.28;1.40;;;;;;;30.06;31.58;100005.05;1735425;82;21025;-69
2022/07/31 08:04:24;;;;;;;2.98;1.30;;;;;;;29.68;32.54;99998.33;1747950;82;21040;-72
2022/07/31 08:06:51;;;;;;;3.62;1.42;;;;;;;29.64;33.04;99990.19;1748106;82;21123;-70
2022/07/31 08:09:21;;;;;;;2.30;1.37;;;;;;;29.64;33.04;99990.19;1747796;82;21017;-70
2022/07/31 08:12:05;;;;;;;4.42;1.45;;;;;;;29.99;32.50;99983.76;1743313;81;21145;-70
2022/07/31 08:14:40;;;;;;;5.97;1.50;;;;;;;29.87;31.72;99998.30;1743282;82;21502;-71
2022/07/31 08:17:24;;;;;;;4.45;1.52;;;;;;;30.02;32.86;99996.95;1747752;82;21076;-69
2022/07/31 08:19:51;;;;;;;2.55;1.07;;;;;;;30.55;31.41;99982.75;1747750;82;21076;-69
2022/07/31 08:22:18;;;;;;;3.58;1.20;;;;;;;30.90;30.78;99979.75;1748166;82;21048;-70
2022/07/31 08:24:44;;;;;;;4.87;1.30;;;;;;;31.39;28.96;99972.67;1747804;82;21227;-70
2022/07/31 08:27:23;;;;;;;4.28;1.17;;;;;;;31.59;29.20;99984.27;1747701;82;21285;-69
2022/07/31 08:29:55;;;;;;;7.70;2.08;;;;;;;31.32;28.91;99981.30;1747870;82;21045;-70
2022/07/31 08:32:23;;;;;;;4.95;1.37;;;;;;;31.14;29.39;99971.72;1747734;82;22077;-69
2022/07/31 08:35:08;;;;;;;8.80;1.55;;;;;;;31.31;29.52;99979.11;1748133;82;21052;-70
2022/07/31 08:37:36;;;;;;;3.72;1.20;;;;;;;31.41;28.40;99977.44;1747772;82;21250;-69
2022/07/31 08:40:03;;;;;;;4.50;1.50;;;;;;;31.48;28.73;99978.33;1748021;82;21608;-69
2022/07/31 08:42:31;;;;;;;2.45;1.10;;;;;;;31.53;28.49;99971.77;1747823;82;21068;-70
2022/07/31 08:44:57;;;;;;;7.28;1.62;;;;;;;31.71;28.37;99975.90;1748097;82;21037;-70
2022/07/31 08:47:26;;;;;;;6.25;1.30;;;;;;;31.98;28.60;99976.42;1747450;82;20994;-71
2022/07/31 08:49:53;;;;;;;9.85;2.00;;;;;;;32.19;28.11;99965.95;1748082;82;21099;-69
2022/07/31 08:52:26;;;;;;;2.67;1.15;;;;;;;32.27;27.70;99964.94;1747627;82;20997;-70
2022/07/31 08:55:06;;;;;;;3.35;1.35;;;;;;;32.28;27.19;99966.63;1768475;80;22076;-70
2022/07/31 08:57:37;;;;;;;7.75;1.50;;;;;;;31.98;27.59;99970.14;1778907;80;20986;-69
2022/07/31 09:00:10;;;;;;;3.60;1.07;;;;;;;31.83;27.48;99977.55;1779136;80;21557;-69
2022/07/31 09:02:40;;;;;;;4.53;1.37;;;;;;;31.45;28.05;99963.77;1778718;80;21287;-69
2022/07/31 09:05:26;;;;;;;2.58;1.40;;;;;;;31.15;29.12;99959.81;1778835;80;21072;-72
2022/07/31 09:07:53;;;;;;;2.27;1.00;;;;;;;31.21;28.53;99950.02;1778652;80;21016;-70
2022/07/31 09:10:25;;;;;;;3.90;1.55;;;;;;;30.94;29.25;99965.23;1779098;80;21033;-69
2022/07/31 09:12:55;;;;;;;4.20;1.30;;;;;;;30.73;28.91;99951.08;1778876;80;21081;-69
2022/07/31 09:15:30;;;;;;;7.78;1.25;;;;;;;30.83;28.72;99943.96;1778816;80;21203;-70
2022/07/31 09:17:58;;;;;;;4.28;1.50;;;;;;;30.77;28.93;99936.59;1779195;80;21046;-69
2022/07/31 09:20:28;;;;;;;5.90;1.25;;;;;;;30.79;29.26;99937.25;1778793;80;21025;-71
2022/07/31 09:26:02;;;;;;;4.87;1.10;;;;;;;30.83;28.64;99924.93;1782316;80;22656;-69
2022/07/31 09:28:35;;;;;;;;;;;;;;;30.97;28.77;99936.31;1759184;81;21092;-71
2022/07/31 09:31:04;;;;;;;3.30;1.40;;;;;;;31.15;28.34;99923.10;1756425;81;21148;-69
2022/07/31 09:33:44;;;;;;;8.30;1.55;;;;;;;31.63;27.90;99931.13;1756328;81;21045;-69
2022/07/31 09:36:22;;;;;;;;;;;;;;;31.87;27.43;99938.83;1759015;81;21553;-70
2022/07/31 09:38:50;;;;;;;3.35;1.30;;;;;;;31.32;28.50;99926.89;1756458;81;20190;-69
2022/07/31 09:41:32;;;;;;;2.50;1.20;;;;;;;30.99;28.94;99922.02;1756529;81;21073;-69
2022/07/31 09:44:03;;;;;;;4.35;1.30;;;;;;;31.02;28.64;99925.70;1756439;81;21127;-70
2022/07/31 09:46:41;;;;;;;4.37;1.70;;;;;;;31.18;29.31;99923.75;1756272;81;21049;-70
2022/07/31 09:49:08;;;;;;;7.50;1.50;;;;;;;31.65;28.59;99922.23;1756368;81;21426;-69
2022/07/31 09:51:41;;;;;;;3.90;1.40;;;;;;;32.05;28.41;99925.22;1756259;81;21084;-70
2022/07/31 09:54:21;;;;;;;4.58;1.17;;;;;;;32.11;27.69;99928.50;1747736;81;21054;-70
2022/07/31 09:57:11;;;;;;;3.85;1.40;;;;;;;31.86;28.06;99922.16;1726193;82;21127;-70
2022/07/31 09:59:39;;;;;;;4.12;1.40;;;;;;;31.73;28.27;99912.57;1726101;83;21059;-70
2022/07/31 10:02:07;;;;;;;6.30;1.50;;;;;;;31.97;28.14;99903.92;1725791;83;21015;-70
2022/07/31 10:04:36;;;;;;;2.67;1.40;;;;;;;32.10;27.65;99903.16;1707742;83;21098;-71
2022/07/31 10:07:03;;;;;;;3.45;1.30;;;;;;;32.22;27.87;99915.67;1703555;83;21057;-70
2022/07/31 10:09:32;;;;;;;6.40;1.80;;;;;;;32.46;28.21;99912.91;1689139;84;22091;-69
2022/07/31 10:12:06;;;;;;;6.58;1.52;;;;;;;32.48;27.19;99910.00;1688990;84;21061;-70
2022/07/31 10:14:38;;;;;;;2.77;1.30;;;;;;;32.17;28.12;99900.47;1661467;84;21096;-70
2022/07/31 10:17:04;;;;;;;6.47;1.62;;;;;;;32.06;28.75;99899.68;1688675;84;21089;-71
2022/07/31 10:19:37;;;;;;;7.42;1.72;;;;;;;32.21;28.64;99892.21;1688401;84;21045;-70
2022/07/31 10:22:08;;;;;;;3.45;1.30;;;;;;;32.40;28.05;99898.77;1674149;84;21213;-70
2022/07/31 10:24:40;;;;;;;7.78;1.57;;;;;;;32.23;27.88;99888.73;1689327;84;21021;-70
2022/07/31 10:27:06;;;;;;;;;;;;;;;32.06;27.99;99890.15;1666386;84;21060;-68
2022/07/31 10:29:34;;;;;;;9.33;1.60;;;;;;;32.04;27.99;99908.57;1690081;84;20183;-70
2022/07/31 10:32:05;;;;;;;3.30;1.30;;;;;;;31.94;27.79;99897.49;1642704;84;21104;-70
2022/07/31 10:34:33;;;;;;;11.00;1.77;;;;;;;31.83;28.46;99895.34;1642723;84;21633;-69
2022/07/31 10:37:22;;;;;;;2.75;1.45;;;;;;;31.95;28.02;99886.91;1689168;84;21068;-71
2022/07/31 10:40:34;;;;;;;5.05;1.27;;;;;;;32.06;28.00;99878.72;1627945;84;21605;-71
2022/07/31 10:43:23;;;;;;;6.47;1.85;;;;;;;32.07;28.10;99884.51;1689192;84;21089;-71
2022/07/31 10:45:50;;;;;;;7.83;1.42;;;;;;;31.98;28.06;99883.00;1685989;84;21144;-70
2022/07/31 10:48:35;;;;;;;4.50;1.30;;;;;;;32.05;28.57;99869.38;1689364;84;21144;-69
2022/07/31 10:51:11;;;;;;;8.33;2.22;;;;;;;32.16;27.87;99876.97;1685055;84;21128;-69
2022/07/31 10:53:59;;;;;;;4.22;1.40;;;;;;;31.94;28.46;99883.88;1687623;84;21553;-68
2022/07/31 10:56:43;;;;;;;6.03;1.72;;;;;;;31.81;28.45;99868.83;1692061;84;21122;-71
2022/07/31 10:59:29;;;;;;;5.75;1.40;;;;;;;31.85;28.38;99877.45;1695732;84;21063;-70
2022/07/31 11:02:32;;;;;;;4.25;1.40;;;;;;;31.72;28.52;99872.76;1695522;84;21132;-71
2022/07/31 11:05:22;;;;;;;5.55;1.00;;;;;;;32.06;28.77;99873.80;1694022;84;21147;-70
2022/07/31 11:08:06;;;;;;;5.15;1.30;;;;;;;32.39;26.91;99866.59;1693591;84;21087;-70
2022/07/31 11:10:37;;;;;;;5.33;1.42;;;;;;;32.42;27.25;99864.47;1694797;84;21061;-70
2022/07/31 11:13:16;;;;;;;2.10;1.30;;;;;;;32.22;27.65;99863.91;1644146;84;22067;-70
2022/07/31 11:15:52;;;;;;;6.15;1.45;;;;;;;31.93;28.39;99876.77;1694303;84;21142;-70
2022/07/31 11:18:37;;;;;;;6.67;1.72;;;;;;;31.63;28.43;99859.00;1672656;84;21135;-69
2022/07/31 11:21:06;;;;;;;5.12;1.50;;;;;;;31.85;28.39;99848.33;1695852;84;21075;-69
2022/07/31 11:23:33;;;;;;;2.92;1.57;;;;;;;32.20;28.22;99841.48;1695856;84;21071;-70
2022/07/31 11:26:02;;;;;;;4.92;1.35;;;;;;;32.35;27.17;99844.88;1702169;83;21612;-69
2022/07/31 11:28:29;;;;;;;4.07;1.47;;;;;;;32.29;27.92;99836.16;1704493;84;21572;-70
2022/07/31 11:30:58;;;;;;;3.65;1.60;;;;;;;32.34;28.00;99839.09;1704474;84;21069;-70
2022/07/31 11:33:41;;;;;;;5.78;1.70;;;;;;;32.31;27.88;99839.52;1704493;83;21073;-70
2022/07/31 11:36:25;;;;;;;7.92;2.00;;;;;;;32.16;27.73;99837.48;1704676;84;21058;-69
2022/07/31 11:38:59;;;;;;;5.78;1.67;;;;;;;32.12;27.61;99831.61;1704778;84;21118;-69
2022/07/31 11:41:29;;;;;;;4.60;1.47;;;;;;;32.11;27.80;99831.81;1704834;84;21145;-70
2022/07/31 11:43:56;;;;;;;4.65;1.47;;;;;;;31.91;28.10;99828.97;1704557;84;21085;-69
2022/07/31 11:46:27;;;;;;;4.08;1.45;;;;;;;31.66;28.57;99832.23;1704590;84;21063;-69
2022/07/31 11:48:54;;;;;;;6.97;1.82;;;;;;;31.32;28.84;99831.15;1704814;84;21053;-69